Time;durP1;ratioP1;P1;durP2;ratioP2;P2;SDS_P1;SDS_P2;PMS_P1;PMS_P2;Temp;Humidity;BMP_temperature;BMP_pressure;BME280_temperature;BME280_humidity;BME280_pressure;Samples;Min_cycle;Max_cycle;Signal;HPM_P1;HPM_P2
2022/07/08 00:00:43;;;;;;;16.75;12.20;;;;;;;16.31;100.00;100552.55;1721790;82;20984;-42
2022/07/08 00:03:09;;;;;;;13.10;11.05;;;;;;;16.31;100.00;100548.63;1724155;82;20928;-42
2022/07/08 00:05:38;;;;;;;15.63;12.15;;;;;;;16.27;100.00;100542.66;1733197;82;21011;-42
2022/07/08 00:08:05;;;;;;;15.43;12.98;;;;;;;16.28;100.00;100548.75;1732177;82;21220;-42
2022/07/08 00:10:32;;;;;;;13.70;11.85;;;;;;;16.25;100.00;100545.80;1740445;82;20925;-42
2022/07/08 00:12:59;;;;;;;15.68;12.45;;;;;;;16.21;100.00;100554.67;1734475;82;20991;-42
2022/07/08 00:15:26;;;;;;;12.70;11.40;;;;;;;16.19;100.00;100552.58;1733910;81;21031;-42
2022/07/08 00:17:52;;;;;;;12.95;11.53;;;;;;;16.17;100.00;100557.02;1702111;83;21609;-42
2022/07/08 00:20:19;;;;;;;11.90;10.78;;;;;;;16.17;100.00;100550.50;1737923;82;21147;-42
2022/07/08 00:22:45;;;;;;;14.03;12.13;;;;;;;16.14;100.00;100552.77;1737126;82;21533;-42
2022/07/08 00:25:14;;;;;;;19.90;11.75;;;;;;;16.14;100.00;100556.67;1735690;82;20993;-42
2022/07/08 00:27:41;;;;;;;15.68;10.70;;;;;;;16.17;100.00;100561.80;1734170;82;20916;-42
2022/07/08 00:30:09;;;;;;;13.30;11.50;;;;;;;16.20;100.00;100560.38;1728134;82;21023;-42
2022/07/08 00:32:37;;;;;;;13.93;11.70;;;;;;;16.25;100.00;100561.47;1731730;81;21262;-42
2022/07/08 00:35:05;;;;;;;14.93;11.20;;;;;;;16.28;100.00;100563.12;1733053;82;21019;-42
2022/07/08 00:37:32;;;;;;;12.65;10.75;;;;;;;16.32;100.00;100549.02;1706317;82;20952;-42
2022/07/08 00:39:58;;;;;;;14.30;10.80;;;;;;;16.34;100.00;100551.11;1708398;82;20963;-42
2022/07/08 00:42:25;;;;;;;12.37;10.72;;;;;;;16.36;100.00;100551.45;1735490;81;21007;-42
2022/07/08 00:44:52;;;;;;;12.43;11.00;;;;;;;16.38;100.00;100560.07;1736303;82;21148;-42
2022/07/08 00:47:19;;;;;;;11.03;9.93;;;;;;;16.42;100.00;100555.58;1723184;82;21048;-42
2022/07/08 00:49:45;;;;;;;11.03;10.00;;;;;;;16.47;100.00;100542.30;1734199;81;20976;-42
2022/07/08 00:52:12;;;;;;;15.38;9.78;;;;;;;16.50;100.00;100547.40;1735881;82;21048;-42
2022/07/08 00:54:39;;;;;;;13.80;10.18;;;;;;;16.53;100.00;100552.48;1723823;82;21521;-42
2022/07/08 00:57:05;;;;;;;15.93;10.28;;;;;;;16.57;100.00;100550.17;1702591;82;21150;-42
2022/07/08 00:59:32;;;;;;;12.07;9.55;;;;;;;16.59;100.00;100545.73;1700359;83;20952;-42
2022/07/08 01:01:59;;;;;;;11.90;9.65;;;;;;;16.65;100.00;100545.45;1733236;82;20976;-42
2022/07/08 01:04:26;;;;;;;10.70;9.60;;;;;;;16.69;100.00;100542.71;1731290;82;21086;-43
2022/07/08 01:06:53;;;;;;;10.28;9.25;;;;;;;16.72;100.00;100543.88;1722793;82;20948;-42
2022/07/08 01:09:21;;;;;;;13.53;9.18;;;;;;;16.74;100.00;100538.13;1731844;81;21051;-42
2022/07/08 01:11:48;;;;;;;14.53;9.70;;;;;;;16.76;100.00;100544.14;1733510;82;20963;-42
2022/07/08 01:14:18;;;;;;;9.73;8.93;;;;;;;16.77;100.00;100545.83;1733007;82;21001;-42
2022/07/08 01:16:45;;;;;;;10.23;9.33;;;;;;;16.79;100.00;100547.92;1740244;82;20932;-42
2022/07/08 01:19:12;;;;;;;12.68;9.13;;;;;;;16.77;100.00;100542.78;1733861;81;20841;-42
2022/07/08 01:21:39;;;;;;;10.10;9.10;;;;;;;16.81;100.00;100551.34;1733445;82;21019;-42
2022/07/08 01:24:07;;;;;;;9.43;8.60;;;;;;;16.83;100.00;100545.59;1730809;82;20984;-42
2022/07/08 01:26:33;;;;;;;11.28;10.15;;;;;;;16.85;100.00;100545.51;1729347;81;21379;-42
2022/07/08 01:29:00;;;;;;;11.20;10.08;;;;;;;16.86;100.00;100550.69;1730276;82;21026;-42
2022/07/08 01:31:27;;;;;;;10.98;9.75;;;;;;;16.86;100.00;100546.77;1723578;82;21407;-42
2022/07/08 01:33:54;;;;;;;11.78;10.48;;;;;;;16.89;100.00;100545.77;1730014;82;21329;-42
2022/07/08 01:36:21;;;;;;;12.13;10.45;;;;;;;16.91;100.00;100546.55;1723193;82;20929;-42
2022/07/08 01:38:48;;;;;;;14.18;9.80;;;;;;;16.90;100.00;100548.33;1700539;83;22085;-42
2022/07/08 01:41:14;;;;;;;12.45;10.85;;;;;;;16.90;100.00;100543.09;1726976;82;20905;-42
2022/07/08 01:43:41;;;;;;;11.57;10.13;;;;;;;16.92;100.00;100543.02;1723303;82;21546;-42
2022/07/08 01:46:08;;;;;;;11.55;10.30;;;;;;;16.92;100.00;100539.09;1732047;82;21099;-42
2022/07/08 01:48:35;;;;;;;12.90;9.30;;;;;;;16.93;100.00;100537.73;1728529;82;20932;-42
2022/07/08 01:51:04;;;;;;;12.70;10.88;;;;;;;16.97;100.00;100536.28;1730478;82;20889;-42
2022/07/08 01:53:31;;;;;;;10.90;9.43;;;;;;;16.98;100.00;100543.21;1730182;81;21541;-42
2022/07/08 01:55:58;;;;;;;11.40;9.98;;;;;;;16.98;100.00;100540.59;1731415;82;20984;-42
2022/07/08 01:58:25;;;;;;;12.60;10.00;;;;;;;16.97;100.00;100541.07;1718256;82;21264;-42
2022/07/08 02:00:52;;;;;;;12.65;9.98;;;;;;;16.95;100.00;100535.89;1735931;81;20972;-42
2022/07/08 02:03:19;;;;;;;11.15;10.08;;;;;;;17.00;100.00;100536.17;1732363;82;21027;-42
2022/07/08 02:05:46;;;;;;;10.40;9.33;;;;;;;17.01;100.00;100536.56;1728355;82;20976;-42
2022/07/08 02:08:13;;;;;;;11.53;9.35;;;;;;;17.03;100.00;100545.19;1730963;82;20953;-42
2022/07/08 02:13:26;;;;;;;13.50;10.18;;;;;;;17.04;100.00;100549.50;1732042;82;20957;-42
2022/07/08 02:15:53;;;;;;;14.35;10.28;;;;;;;17.07;100.00;100544.16;1728421;82;20988;-42
2022/07/08 02:18:19;;;;;;;10.53;9.45;;;;;;;17.10;100.00;100553.17;1728473;82;21023;-42
2022/07/08 02:20:46;;;;;;;14.35;9.70;;;;;;;17.09;100.00;100550.17;1732614;82;20949;-42
2022/07/08 02:23:13;;;;;;;11.25;10.10;;;;;;;17.11;100.00;100553.56;1697977;82;21245;-42
2022/07/08 02:25:40;;;;;;;16.25;8.60;;;;;;;17.15;100.00;100561.66;1727723;82;20952;-43
2022/07/08 02:28:07;;;;;;;11.63;9.73;;;;;;;17.18;100.00;100559.37;1727456;82;21404;-42
2022/07/08 02:30:33;;;;;;;12.20;8.95;;;;;;;17.20;100.00;100557.55;1718349;82;20905;-42
2022/07/08 02:33:01;;;;;;;16.27;10.05;;;;;;;17.22;100.00;100559.63;1724751;82;20937;-42
2022/07/08 02:35:27;;;;;;;10.10;9.20;;;;;;;17.23;100.00;100553.00;1727230;82;21145;-42
2022/07/08 02:37:54;;;;;;;16.20;10.10;;;;;;;17.26;100.00;100562.49;1719426;82;21015;-42
2022/07/08 02:40:21;;;;;;;13.50;9.90;;;;;;;17.29;100.00;100568.89;1728821;81;20988;-42
2022/07/08 02:42:47;;;;;;;14.43;10.30;;;;;;;17.34;100.00;100566.08;1699378;82;20972;-42
2022/07/08 02:45:15;;;;;;;15.20;9.45;;;;;;;17.35;100.00;100569.08;1727863;82;20933;-42
2022/07/08 02:47:41;;;;;;;12.03;9.78;;;;;;;17.38;100.00;100565.02;1737234;81;21523;-42
2022/07/08 02:50:09;;;;;;;15.50;10.60;;;;;;;17.40;100.00;100564.48;1719970;82;20968;-42
2022/07/08 02:52:36;;;;;;;14.58;11.08;;;;;;;17.43;100.00;100568.27;1730148;82;21024;-42
2022/07/08 02:55:03;;;;;;;14.30;11.53;;;;;;;17.43;100.00;100569.57;1729079;82;21525;-43
2022/07/08 02:57:30;;;;;;;19.98;12.70;;;;;;;17.45;100.00;100571.66;1732618;82;20936;-43
2022/07/08 02:59:57;;;;;;;19.32;13.05;;;;;;;17.47;100.00;100576.84;1737785;82;21827;-42
2022/07/08 03:02:24;;;;;;;20.45;13.98;;;;;;;17.46;100.00;100575.97;1721599;82;20967;-42
2022/07/08 03:04:53;;;;;;;25.72;13.68;;;;;;;17.44;100.00;100577.81;1734929;82;21522;-42
2022/07/08 03:07:21;;;;;;;19.27;14.18;;;;;;;17.49;100.00;100583.68;1730309;82;20896;-42
2022/07/08 03:09:49;;;;;;;20.25;13.53;;;;;;;17.54;100.00;100593.95;1733931;81;20968;-42
2022/07/08 03:12:16;;;;;;;26.05;15.18;;;;;;;17.56;100.00;100601.27;1722855;81;21124;-42
2022/07/08 03:14:44;;;;;;;25.25;15.10;;;;;;;17.55;100.00;100603.94;1734930;81;20837;-43
2022/07/08 03:17:10;;;;;;;32.63;15.80;;;;;;;17.52;100.00;100599.71;1736397;82;21380;-42
2022/07/08 03:19:37;;;;;;;39.42;17.67;;;;;;;17.52;100.00;100611.02;1737146;82;20909;-42
2022/07/08 03:22:05;;;;;;;32.65;18.35;;;;;;;17.53;100.00;100611.40;1729550;82;20944;-42
2022/07/08 03:24:31;;;;;;;36.30;18.48;;;;;;;17.56;100.00;100612.21;1740640;82;21143;-42
2022/07/08 03:26:58;;;;;;;43.52;19.80;;;;;;;17.55;100.00;100614.41;1729322;82;20936;-42
2022/07/08 03:29:25;;;;;;;43.08;19.75;;;;;;;17.52;100.00;100609.70;1730111;82;21013;-42
2022/07/08 03:31:53;;;;;;;48.02;19.85;;;;;;;17.57;100.00;100613.91;1723539;82;21483;-42
2022/07/08 03:34:20;;;;;;;46.08;20.52;;;;;;;17.60;100.00;100609.36;1740404;82;20955;-42
2022/07/08 03:36:46;;;;;;;39.98;20.12;;;;;;;17.60;100.00;100617.21;1723238;82;21680;-43
2022/07/08 03:39:13;;;;;;;42.65;22.32;;;;;;;17.62;100.00;100621.91;1736788;82;20991;-42
2022/07/08 03:41:39;;;;;;;43.38;21.12;;;;;;;17.62;100.00;100619.77;1733337;82;21391;-42
2022/07/08 03:44:07;;;;;;;46.88;21.45;;;;;;;17.63;100.00;100624.09;1733959;82;21032;-42
2022/07/08 03:46:34;;;;;;;55.17;21.73;;;;;;;17.61;100.00;100620.22;1723684;81;20849;-43
2022/07/08 03:49:03;;;;;;;40.65;20.70;;;;;;;17.58;100.00;100615.61;1729727;82;21218;-42
2022/07/08 03:51:29;;;;;;;40.28;20.05;;;;;;;17.58;100.00;100615.61;1724575;82;21030;-42
2022/07/08 03:53:56;;;;;;;40.73;19.50;;;;;;;17.60;100.00;100619.00;1739414;82;20944;-42
2022/07/08 03:56:23;;;;;;;42.85;21.33;;;;;;;17.62;100.00;100624.53;1730160;82;20979;-42
2022/07/08 03:58:49;;;;;;;43.38;22.02;;;;;;;17.63;100.00;100618.85;1722443;81;20937;-42
2022/07/08 04:01:16;;;;;;;43.13;22.35;;;;;;;17.65;100.00;100618.32;1715695;82;21063;-42
2022/07/08 04:03:43;;;;;;;41.33;22.42;;;;;;;17.66;100.00;100615.62;1717904;82;20897;-43
2022/07/08 04:06:10;;;;;;;45.95;24.47;;;;;;;17.72;100.00;100624.13;1719303;82;21463;-42
2022/07/08 04:08:37;;;;;;;36.98;22.95;;;;;;;17.75;100.00;100626.13;1721350;82;20902;-43
2022/07/08 04:11:05;;;;;;;35.80;22.30;;;;;;;17.71;100.00;100627.20;1711937;82;20932;-42
2022/07/08 04:13:32;;;;;;;38.15;24.35;;;;;;;17.71;100.00;100628.50;1710334;82;21170;-42
2022/07/08 04:15:59;;;;;;;43.23;24.80;;;;;;;17.72;100.00;100627.58;1719573;82;21545;-42
2022/07/08 04:18:26;;;;;;;40.63;23.38;;;;;;;17.74;100.00;100635.38;1694455;83;20956;-42
2022/07/08 04:20:53;;;;;;;42.20;24.80;;;;;;;17.77;100.00;100637.86;1721206;82;21505;-42
2022/07/08 04:23:19;;;;;;;45.92;23.12;;;;;;;17.79;100.00;100638.63;1720375;82;20992;-42
2022/07/08 04:25:46;;;;;;;40.70;22.77;;;;;;;17.80;100.00;100636.41;1721884;82;21149;-42
2022/07/08 04:28:12;;;;;;;42.85;22.70;;;;;;;17.84;100.00;100639.73;1686197;82;20980;-42
2022/07/08 04:30:40;;;;;;;38.83;25.15;;;;;;;17.88;100.00;100642.59;1723694;81;20877;-42
2022/07/08 04:33:08;;;;;;;52.48;25.27;;;;;;;17.90;100.00;100641.59;1714094;82;20897;-42
2022/07/08 04:35:36;;;;;;;41.13;24.60;;;;;;;17.90;100.00;100647.30;1723407;82;21546;-42
2022/07/08 04:38:03;;;;;;;38.98;24.57;;;;;;;17.91;100.00;100646.38;1724718;82;21482;-42
2022/07/08 04:40:31;;;;;;;46.73;26.68;;;;;;;17.93;100.00;100645.84;1707251;82;21027;-42
2022/07/08 04:42:58;;;;;;;47.13;26.33;;;;;;;17.94;100.00;100648.85;1723263;82;21534;-43
2022/07/08 04:45:24;;;;;;;46.20;25.12;;;;;;;17.96;100.00;100654.87;1719404;82;20960;-42
2022/07/08 04:47:52;;;;;;;47.00;24.92;;;;;;;18.00;100.00;100652.97;1710519;82;20898;-42
2022/07/08 04:50:19;;;;;;;46.05;24.20;;;;;;;18.03;100.00;100659.40;1716774;82;21336;-42
2022/07/08 04:52:45;;;;;;;37.88;22.95;;;;;;;18.08;100.00;100653.03;1719335;81;20972;-42
2022/07/08 04:55:27;;;;;;;40.78;23.38;;;;;;;18.15;100.00;100652.26;1721904;82;20999;-43
2022/07/08 04:57:42;;;;;;;41.70;22.85;;;;;;;18.16;100.00;100657.05;1721456;82;21566;-42
2022/07/08 05:00:11;;;;;;;32.08;20.82;;;;;;;18.16;100.00;100659.20;1733375;82;20881;-43
2022/07/08 05:02:38;;;;;;;39.05;21.60;;;;;;;18.21;100.00;100658.55;1723810;82;21767;-43
2022/07/08 05:05:06;;;;;;;33.08;20.85;;;;;;;18.27;100.00;100657.37;1734879;82;20975;-44
2022/07/08 05:07:33;;;;;;;28.85;19.17;;;;;;;18.28;100.00;100655.14;1734412;82;20964;-43
2022/07/08 05:10:00;;;;;;;27.73;19.07;;;;;;;18.29;100.00;100659.94;1721543;82;21027;-43
2022/07/08 05:12:28;;;;;;;30.70;18.50;;;;;;;18.32;100.00;100661.09;1734347;82;21529;-43
2022/07/08 05:14:54;;;;;;;32.85;19.50;;;;;;;18.33;100.00;100653.18;1734099;82;21149;-43
2022/07/08 05:17:22;;;;;;;28.87;19.30;;;;;;;18.40;100.00;100654.19;1735423;82;21403;-43
2022/07/08 05:19:49;;;;;;;23.67;18.12;;;;;;;18.41;100.00;100656.72;1722396;82;20986;-41
2022/07/08 05:22:15;;;;;;;28.07;19.80;;;;;;;18.46;100.00;100653.44;1736751;81;20936;-42
2022/07/08 05:24:42;;;;;;;28.92;17.95;;;;;;;18.54;100.00;100654.35;1733514;82;21016;-43
2022/07/08 05:27:09;;;;;;;25.08;16.75;;;;;;;18.62;100.00;100653.53;1736555;82;21322;-42
2022/07/08 05:29:37;;;;;;;28.55;17.92;;;;;;;18.72;100.00;100655.24;1735014;82;21007;-42
2022/07/08 05:32:04;;;;;;;28.50;17.65;;;;;;;18.85;100.00;100659.41;1720638;82;20971;-42
2022/07/08 05:34:32;;;;;;;30.75;17.25;;;;;;;18.99;100.00;100650.02;1733568;82;20901;-42
2022/07/08 05:36:59;;;;;;;33.60;17.42;;;;;;;19.16;100.00;100661.81;1740615;82;20982;-43
2022/07/08 05:39:25;;;;;;;30.57;19.07;;;;;;;19.21;100.00;100657.17;1738653;81;21206;-42
2022/07/08 05:41:53;;;;;;;24.80;17.32;;;;;;;19.29;100.00;100653.30;1723825;82;20948;-42
2022/07/08 05:44:19;;;;;;;32.00;17.85;;;;;;;19.47;100.00;100654.13;1736845;82;21426;-42
2022/07/08 05:46:46;;;;;;;25.37;16.40;;;;;;;19.60;100.00;100651.23;1733082;82;21003;-42
2022/07/08 05:49:12;;;;;;;23.92;15.85;;;;;;;19.78;100.00;100651.17;1737240;82;21565;-43
2022/07/08 05:51:39;;;;;;;19.70;15.25;;;;;;;19.90;100.00;100650.98;1731475;81;21077;-42
2022/07/08 05:54:06;;;;;;;20.27;13.98;;;;;;;19.99;100.00;100654.91;1720496;82;21023;-43
2022/07/08 05:56:33;;;;;;;18.23;12.82;;;;;;;20.10;100.00;100650.77;1736059;82;21085;-43
2022/07/08 05:59:00;;;;;;;28.02;14.87;;;;;;;20.28;100.00;100651.96;1728860;82;20937;-42
2022/07/08 06:01:28;;;;;;;21.87;14.73;;;;;;;20.54;100.00;100656.20;1714742;82;20984;-42
2022/07/08 06:03:55;;;;;;;17.17;13.78;;;;;;;20.65;100.00;100648.56;1716154;82;21280;-42
2022/07/08 06:06:23;;;;;;;27.22;14.23;;;;;;;20.68;100.00;100661.53;1717442;82;21008;-42
2022/07/08 06:08:49;;;;;;;17.42;14.60;;;;;;;20.71;100.00;100663.59;1727310;82;21027;-43
2022/07/08 06:11:16;;;;;;;22.35;14.30;;;;;;;20.79;100.00;100671.88;1711154;82;20996;-42
2022/07/08 06:13:43;;;;;;;23.95;14.70;;;;;;;20.85;99.80;100667.63;1723138;82;21032;-42
2022/07/08 06:16:09;;;;;;;21.62;13.18;;;;;;;20.97;100.00;100666.06;1723373;82;21195;-43
2022/07/08 06:18:36;;;;;;;25.30;13.45;;;;;;;21.16;98.53;100667.13;1715548;82;20950;-43
2022/07/08 06:21:03;;;;;;;15.32;13.43;;;;;;;21.34;97.57;100664.30;1711717;82;20933;-43
2022/07/08 06:23:31;;;;;;;19.12;13.75;;;;;;;21.36;95.13;100666.41;1718774;82;20945;-43
2022/07/08 06:25:58;;;;;;;18.23;14.30;;;;;;;21.41;96.40;100659.52;1720138;82;21035;-44
2022/07/08 06:28:25;;;;;;;15.85;13.32;;;;;;;21.53;95.96;100663.56;1717309;82;21744;-43
2022/07/08 06:30:51;;;;;;;19.92;14.83;;;;;;;21.61;94.43;100667.53;1729804;82;20925;-43
2022/07/08 06:33:18;;;;;;;17.60;13.25;;;;;;;21.68;94.42;100669.70;1726612;82;21503;-43
2022/07/08 06:35:45;;;;;;;18.75;14.23;;;;;;;21.74;93.94;100664.53;1723434;81;20929;-43
2022/07/08 06:38:13;;;;;;;20.27;14.00;;;;;;;21.75;93.72;100663.59;1719043;82;20984;-43
2022/07/08 06:40:39;;;;;;;17.80;14.73;;;;;;;21.75;92.66;100667.54;1720155;81;21028;-43
2022/07/08 06:43:06;;;;;;;21.55;15.65;;;;;;;21.77;93.40;100664.82;1716642;81;21561;-43
2022/07/08 06:45:32;;;;;;;23.25;15.72;;;;;;;21.96;93.38;100661.87;1717904;82;20941;-43
2022/07/08 06:47:59;;;;;;;16.52;13.72;;;;;;;22.16;91.03;100669.81;1711919;82;21463;-43
2022/07/08 06:50:26;;;;;;;30.50;20.48;;;;;;;22.26;91.22;100674.02;1719807;82;21007;-43
2022/07/08 06:52:53;;;;;;;21.65;16.95;;;;;;;22.34;89.85;100672.22;1715599;82;21147;-43
2022/07/08 11:20:06;;;;;;;15.13;6.42;;;;;;;33.71;37.36;100503.98;1768674;79;22070;-40
2022/07/08 11:22:35;;;;;;;11.73;5.80;;;;;;;33.94;35.99;100502.11;1704221;82;20996;-42
2022/07/08 11:25:01;;;;;;;9.35;6.12;;;;;;;33.46;36.88;100501.48;1743868;81;20990;-42
2022/07/08 11:27:34;;;;;;;11.20;6.15;;;;;;;33.33;38.16;100495.34;1730539;81;21032;-42
2022/07/08 11:29:59;;;;;;;17.05;6.42;;;;;;;33.27;37.02;100494.20;1743914;81;21501;-43
2022/07/08 11:32:26;;;;;;;17.92;6.37;;;;;;;33.31;38.78;100491.48;1745888;80;20927;-42
2022/07/08 11:34:55;;;;;;;10.30;5.70;;;;;;;33.61;37.20;100489.47;1745956;81;20967;-42
2022/07/08 11:37:22;;;;;;;19.25;5.83;;;;;;;33.67;35.70;100494.11;1728701;81;21139;-42
2022/07/08 11:39:49;;;;;;;13.95;5.70;;;;;;;33.58;37.87;100486.62;1744803;81;21494;-42
2022/07/08 11:42:17;;;;;;;13.15;5.95;;;;;;;33.48;36.51;100484.22;1746043;81;20888;-42
2022/07/08 11:44:44;;;;;;;17.05;6.20;;;;;;;33.52;36.74;100485.52;1736616;80;21535;-43
2022/07/08 11:47:15;;;;;;;13.35;6.12;;;;;;;33.49;35.35;100485.88;1736601;81;20949;-42
2022/07/08 11:49:43;;;;;;;15.72;6.00;;;;;;;33.47;35.19;100475.84;1745707;81;21083;-42
2022/07/08 11:52:10;;;;;;;17.02;5.87;;;;;;;33.51;35.55;100479.83;1743288;81;21035;-42
2022/07/08 11:54:38;;;;;;;19.60;5.87;;;;;;;33.45;35.31;100476.50;1742993;81;21115;-42
2022/07/08 11:57:05;;;;;;;12.10;5.62;;;;;;;33.33;35.49;100469.87;1742073;81;20971;-42
2022/07/08 11:59:34;;;;;;;10.00;5.40;;;;;;;33.41;36.22;100464.44;1742925;81;20952;-42
2022/07/08 12:02:03;;;;;;;14.47;5.22;;;;;;;33.57;34.71;100475.58;1737334;81;20983;-42
2022/07/08 12:04:30;;;;;;;15.85;5.45;;;;;;;33.55;34.97;100473.58;1743969;81;21584;-42
2022/07/08 12:07:00;;;;;;;12.70;5.40;;;;;;;33.47;35.75;100466.95;1742662;81;21029;-42
2022/07/08 12:09:28;;;;;;;13.55;5.28;;;;;;;33.51;34.45;100471.78;1732663;81;22232;-42
2022/07/08 12:11:57;;;;;;;34.43;5.58;;;;;;;33.67;34.05;100465.94;1744154;81;21536;-43
2022/07/08 12:14:24;;;;;;;18.10;5.03;;;;;;;33.91;34.86;100466.73;1740459;81;21022;-42
2022/07/08 12:16:55;;;;;;;10.40;4.53;;;;;;;34.01;33.36;100458.46;1748762;81;20990;-43
2022/07/08 12:19:36;;;;;;;19.30;5.10;;;;;;;33.99;33.79;100468.55;1742330;81;20979;-43
2022/07/08 12:22:05;;;;;;;13.62;4.58;;;;;;;34.19;32.40;100467.50;1741302;81;21550;-43
2022/07/08 12:24:35;;;;;;;17.48;4.90;;;;;;;34.37;35.22;100470.66;1748344;81;21003;-42
2022/07/08 12:27:05;;;;;;;26.23;5.45;;;;;;;34.67;31.48;100464.48;1741959;81;21442;-42
2022/07/08 12:29:36;;;;;;;14.93;4.80;;;;;;;34.99;32.96;100457.48;1719809;81;20958;-42
2022/07/08 12:32:08;;;;;;;12.50;4.80;;;;;;;35.19;32.48;100461.26;1741399;81;21524;-42
2022/07/08 12:34:35;;;;;;;23.25;4.95;;;;;;;35.34;30.18;100459.03;1743808;81;21464;-42
2022/07/08 12:37:19;;;;;;;25.35;5.25;;;;;;;35.39;30.30;100457.94;1742085;81;20958;-43
2022/07/08 12:39:46;;;;;;;21.42;4.70;;;;;;;35.49;30.23;100451.71;1755428;81;21241;-42
2022/07/08 12:42:13;;;;;;;13.58;4.75;;;;;;;35.59;31.14;100452.76;1741846;81;20935;-42
2022/07/08 12:44:43;;;;;;;19.65;4.45;;;;;;;35.67;28.92;100445.06;1738431;81;21508;-42
2022/07/08 12:47:11;;;;;;;14.18;4.50;;;;;;;35.81;29.14;100448.19;1736606;81;21197;-42
2022/07/08 12:49:41;;;;;;;18.32;4.58;;;;;;;36.02;28.03;100442.47;1741764;81;20971;-43
2022/07/08 12:52:09;;;;;;;37.60;4.97;;;;;;;36.16;29.39;100439.34;1741158;80;21145;-43
2022/07/08 12:54:38;;;;;;;8.70;4.17;;;;;;;36.32;30.37;100437.33;1742492;81;20991;-41
2022/07/08 12:57:06;;;;;;;13.68;4.00;;;;;;;36.57;30.53;100435.01;1738311;81;20931;-41
2022/07/08 12:59:34;;;;;;;16.30;4.58;;;;;;;36.55;27.66;100434.88;1744872;80;21532;-41
2022/07/08 13:02:00;;;;;;;14.35;4.70;;;;;;;36.30;28.08;100435.36;1740312;81;20931;-41
2022/07/08 13:04:27;;;;;;;14.38;4.12;;;;;;;35.97;27.13;100432.75;1708952;81;21297;-41
2022/07/08 13:06:57;;;;;;;11.55;4.58;;;;;;;35.92;29.01;100432.52;1741607;81;20943;-41
2022/07/08 13:09:24;;;;;;;14.30;3.87;;;;;;;35.94;27.93;100430.45;1731923;81;21519;-41
2022/07/08 13:11:53;;;;;;;12.37;4.20;;;;;;;35.95;27.40;100422.70;1742371;81;20982;-41
2022/07/08 13:14:21;;;;;;;17.60;3.98;;;;;;;35.99;27.67;100418.58;1745620;81;20943;-41
2022/07/08 13:16:47;;;;;;;11.88;3.87;;;;;;;36.03;26.71;100417.70;1736678;81;21110;-41
2022/07/08 13:19:14;;;;;;;12.73;4.15;;;;;;;35.97;27.92;100419.29;1741563;81;21023;-41
2022/07/08 13:21:41;;;;;;;4.33;3.75;;;;;;;36.01;27.57;100416.55;1741873;81;20975;-41
2022/07/08 13:24:09;;;;;;;14.53;3.80;;;;;;;35.85;26.59;100407.42;1707294;81;22146;-41
2022/07/08 13:26:36;;;;;;;10.95;3.90;;;;;;;35.59;28.11;100411.58;1744940;81;21591;-41
2022/07/08 13:29:03;;;;;;;13.65;3.52;;;;;;;35.59;27.30;100398.12;1743246;81;21140;-42
2022/07/08 13:31:30;;;;;;;10.08;3.77;;;;;;;35.67;27.64;100393.44;1741374;81;21007;-42
2022/07/08 13:33:57;;;;;;;13.18;3.33;;;;;;;35.85;27.16;100398.81;1735532;81;20951;-42
2022/07/08 13:36:24;;;;;;;11.05;3.92;;;;;;;36.06;27.15;100396.61;1741782;81;21639;-42
2022/07/08 13:38:50;;;;;;;12.15;3.65;;;;;;;36.26;25.32;100393.70;1704731;83;20967;-42
2022/07/08 13:41:18;;;;;;;22.37;3.98;;;;;;;36.35;24.95;100392.48;1743342;81;22511;-42
2022/07/08 13:43:45;;;;;;;12.10;4.05;;;;;;;36.30;25.13;100395.80;1741253;80;22184;-42
2022/07/08 13:46:12;;;;;;;13.10;3.77;;;;;;;36.22;24.91;100388.72;1741458;81;21033;-42
2022/07/08 13:48:40;;;;;;;10.25;3.42;;;;;;;36.27;24.85;100388.63;1738050;81;21485;-42
2022/07/08 13:51:07;;;;;;;11.22;3.87;;;;;;;36.50;26.20;100388.30;1743332;81;20983;-42
2022/07/08 13:53:34;;;;;;;12.73;3.87;;;;;;;36.51;26.30;100383.25;1741424;81;21840;-42
2022/07/08 13:56:01;;;;;;;17.48;3.70;;;;;;;36.44;24.48;100384.56;1740393;81;21013;-42
2022/07/08 13:58:28;;;;;;;11.85;3.33;;;;;;;36.34;25.74;100386.78;1739663;81;21623;-42
2022/07/08 14:00:55;;;;;;;12.58;3.20;;;;;;;36.24;25.64;100381.27;1746494;81;20978;-42
2022/07/08 14:03:22;;;;;;;17.75;3.47;;;;;;;36.33;26.35;100379.23;1731262;81;20943;-42
2022/07/08 14:05:49;;;;;;;12.75;3.40;;;;;;;36.50;26.08;100362.19;1744729;81;21074;-42
2022/07/08 14:08:15;;;;;;;18.48;3.27;;;;;;;36.79;23.80;100363.45;1740170;81;21007;-42
2022/07/08 14:10:42;;;;;;;8.78;3.67;;;;;;;37.06;25.04;100362.16;1735926;81;20983;-42
2022/07/08 14:13:10;;;;;;;24.32;3.25;;;;;;;37.07;24.25;100363.29;1741874;81;21022;-42
2022/07/08 14:15:37;;;;;;;18.00;3.00;;;;;;;36.87;23.39;100360.55;1739225;81;21218;-42
2022/07/08 14:18:04;;;;;;;13.10;3.10;;;;;;;36.93;23.67;100356.21;1743353;81;21147;-42
2022/07/08 14:20:31;;;;;;;12.13;3.35;;;;;;;37.19;24.77;100364.86;1748817;81;20943;-42
2022/07/08 14:22:57;;;;;;;14.85;3.15;;;;;;;37.43;25.96;100359.05;1751013;81;20954;-42
2022/07/08 14:25:24;;;;;;;15.65;3.12;;;;;;;37.56;25.28;100359.59;1750715;81;21002;-42
2022/07/08 14:27:51;;;;;;;14.75;3.20;;;;;;;37.59;25.04;100357.28;1747971;81;21029;-42
2022/07/08 14:30:18;;;;;;;14.98;3.30;;;;;;;37.50;23.56;100355.31;1747816;80;21095;-42
2022/07/08 14:32:45;;;;;;;20.25;3.30;;;;;;;37.47;22.58;100353.01;1779133;79;20960;-42
2022/07/08 14:35:12;;;;;;;10.98;2.85;;;;;;;37.50;22.84;100355.31;1716922;83;20957;-42
2022/07/08 14:37:39;;;;;;;10.65;3.47;;;;;;;37.37;24.81;100356.66;1743713;81;20981;-42
2022/07/08 14:40:08;;;;;;;24.85;2.90;;;;;;;37.22;24.87;100354.99;1757587;80;20978;-42
2022/07/08 14:42:34;;;;;;;15.25;3.45;;;;;;;37.33;24.82;100354.08;1751413;81;21034;-42
2022/07/08 14:45:01;;;;;;;13.10;3.12;;;;;;;37.58;22.97;100356.97;1748715;81;21010;-42
2022/07/08 14:47:28;;;;;;;12.80;2.95;;;;;;;37.75;23.48;100351.95;1748781;81;20971;-42
2022/07/08 14:49:55;;;;;;;17.73;3.15;;;;;;;37.93;21.92;100343.70;1744503;81;21125;-42
2022/07/08 14:56:07;;;;;;;5.92;3.02;;;;;;;37.97;22.69;100344.97;1722045;83;21172;-42
2022/07/08 14:58:34;;;;;;;14.35;3.25;;;;;;;37.91;23.69;100341.23;1765261;79;21072;-42
2022/07/08 15:01:01;;;;;;;10.82;2.85;;;;;;;37.81;24.64;100342.19;1747877;81;21006;-42
2022/07/08 15:03:28;;;;;;;7.37;3.17;;;;;;;37.76;24.36;100341.46;1738967;81;21030;-42
2022/07/08 15:05:56;;;;;;;8.80;2.85;;;;;;;37.84;26.32;100343.64;1717899;83;21006;-42
2022/07/08 15:08:29;;;;;;;9.93;2.70;;;;;;;37.84;26.14;100339.05;1746686;81;21761;-42
2022/07/08 15:10:56;;;;;;;14.18;3.27;;;;;;;37.74;26.47;100335.45;1712399;83;21034;-42
2022/07/08 15:13:27;;;;;;;9.30;2.85;;;;;;;37.44;26.64;100338.59;1748159;81;20982;-42
2022/07/08 15:15:55;;;;;;;15.43;3.22;;;;;;;37.24;25.53;100338.08;1747999;81;20959;-42
2022/07/08 15:18:22;;;;;;;10.38;3.30;;;;;;;37.03;26.41;100335.09;1747553;81;20943;-42
2022/07/08 15:20:49;;;;;;;10.63;3.10;;;;;;;36.91;25.95;100338.87;1751366;81;21828;-42
2022/07/08 15:23:18;;;;;;;18.73;2.65;;;;;;;36.71;27.95;100332.63;1749272;81;21018;-42
2022/07/08 15:25:49;;;;;;;14.50;3.25;;;;;;;36.45;28.82;100338.23;1748574;81;21623;-42
2022/07/08 15:28:16;;;;;;;9.45;3.20;;;;;;;36.36;29.36;100337.08;1716229;83;23467;-41
2022/07/08 15:30:42;;;;;;;10.58;3.20;;;;;;;36.17;27.81;100342.70;1750570;81;20979;-41
2022/07/08 15:33:10;;;;;;;12.40;2.92;;;;;;;36.21;29.04;100338.58;1705091;83;21140;-42
2022/07/08 15:46:20;;;;;;;12.05;3.20;;;;;;;36.43;28.32;100349.23;1737781;81;20981;-41
2022/07/08 15:48:48;;;;;;;14.83;3.30;;;;;;;36.47;28.46;100345.09;1748866;81;21095;-42
2022/07/08 15:51:15;;;;;;;18.77;4.30;;;;;;;36.65;27.99;100351.28;1749874;81;20997;-42